createdAt,value
2023-04-10T00:00:58.454Z,0.00
2023-04-10T00:01:58.647Z,0.00
2023-04-10T00:02:58.519Z,0.00
2023-04-10T00:03:58.702Z,0.00
2023-04-10T00:04:58.537Z,0.00
2023-04-10T00:05:58.578Z,0.00
2023-04-10T00:06:58.417Z,0.00
2023-04-10T00:07:58.413Z,0.00
2023-04-10T00:08:58.393Z,0.00
2023-04-10T00:09:58.434Z,0.00
2023-04-10T00:10:58.416Z,0.00
2023-04-10T00:11:58.411Z,0.00
2023-04-10T00:12:58.352Z,0.00
2023-04-10T00:13:58.393Z,0.00
2023-04-10T00:14:58.360Z,0.00
2023-04-10T00:15:58.374Z,0.00
2023-04-10T00:16:58.382Z,0.00
2023-04-10T00:17:58.387Z,0.00
2023-04-10T00:18:58.356Z,0.00
2023-04-10T00:19:58.349Z,0.00
2023-04-10T00:20:58.310Z,0.00
2023-04-10T00:21:58.340Z,0.00
2023-04-10T00:22:58.357Z,0.00
2023-04-10T00:23:58.339Z,0.00
2023-04-10T00:24:58.343Z,0.00
2023-04-10T00:25:58.309Z,0.00
2023-04-10T00:26:58.272Z,0.00
2023-04-10T00:27:58.297Z,0.00
2023-04-10T00:28:58.284Z,0.00
2023-04-10T00:29:58.279Z,0.00
2023-04-10T00:30:58.269Z,0.00
2023-04-10T00:31:58.344Z,0.00
2023-04-10T00:32:58.279Z,0.00
2023-04-10T00:33:58.258Z,0.00
2023-04-10T00:34:58.220Z,0.00
2023-04-10T00:35:58.253Z,0.00
2023-04-10T00:36:58.216Z,0.00
2023-04-10T00:37:58.238Z,0.00
2023-04-10T00:38:58.233Z,0.00
2023-04-10T00:39:58.209Z,0.00
2023-04-10T00:40:58.213Z,0.00
2023-04-10T00:41:58.193Z,0.00
2023-04-10T00:42:58.179Z,0.00
2023-04-10T00:43:58.185Z,0.00
2023-04-10T00:44:58.166Z,0.00
2023-04-10T00:45:58.263Z,0.00
2023-04-10T00:46:58.155Z,0.00
2023-04-10T00:47:58.221Z,0.00
2023-04-10T00:48:58.136Z,0.00
2023-04-10T00:49:58.140Z,0.00
2023-04-10T00:50:58.122Z,0.00
2023-04-10T00:51:58.755Z,0.00
2023-04-10T00:52:58.125Z,0.00
2023-04-10T00:53:58.133Z,0.00
2023-04-10T00:54:58.110Z,0.00
2023-04-10T00:55:58.107Z,0.00
2023-04-10T00:56:58.143Z,0.00
2023-04-10T00:57:58.109Z,0.00
2023-04-10T00:58:58.080Z,0.00
2023-04-10T00:59:58.084Z,0.00
2023-04-10T01:00:58.150Z,0.00
2023-04-10T01:01:58.182Z,0.00
2023-04-10T01:02:58.186Z,0.00
2023-04-10T01:03:58.668Z,0.00
2023-04-10T01:04:58.067Z,0.00
2023-04-10T01:05:58.065Z,0.00
2023-04-10T01:06:58.040Z,0.00
2023-04-10T01:07:58.070Z,0.00
2023-04-10T01:08:58.014Z,0.00
2023-04-10T01:09:58.057Z,0.00
2023-04-10T01:10:58.020Z,0.00
2023-04-10T01:11:58.036Z,0.00
2023-04-10T01:12:58.008Z,0.00
2023-04-10T01:13:58.001Z,0.00
2023-04-10T01:14:57.992Z,0.00
2023-04-10T01:15:57.990Z,0.00
2023-04-10T01:16:58.000Z,0.00
2023-04-10T01:17:58.008Z,0.00
2023-04-10T01:18:57.943Z,0.00
2023-04-10T01:19:57.950Z,0.00
2023-04-10T01:20:57.932Z,0.00
2023-04-10T01:21:57.949Z,0.00
2023-04-10T01:22:57.952Z,0.00
2023-04-10T01:23:57.949Z,0.00
2023-04-10T01:24:57.916Z,0.00
2023-04-10T01:25:57.914Z,0.00
2023-04-10T01:26:57.891Z,0.00
2023-04-10T01:27:57.943Z,0.00
2023-04-10T01:28:57.886Z,0.00
2023-04-10T01:29:57.888Z,0.00
2023-04-10T01:30:57.941Z,0.00
2023-04-10T01:31:57.884Z,0.00
2023-04-10T01:32:57.914Z,0.00
2023-04-10T01:33:57.912Z,0.00
2023-04-10T01:34:57.854Z,0.00
2023-04-10T01:35:57.883Z,0.00
2023-04-10T01:36:57.853Z,0.00
2023-04-10T01:37:57.840Z,0.00
2023-04-10T01:38:57.813Z,0.00
2023-04-10T01:39:57.849Z,0.00
2023-04-10T01:40:57.819Z,0.00
2023-04-10T01:41:57.814Z,0.00
2023-04-10T01:42:57.812Z,0.00
2023-04-10T01:43:57.800Z,0.00
2023-04-10T01:44:57.769Z,0.00
2023-04-10T01:45:57.922Z,0.00
2023-04-10T01:46:57.775Z,0.00
2023-04-10T01:47:57.875Z,0.00
2023-04-10T01:48:57.798Z,0.00
2023-04-10T01:49:57.770Z,0.00
2023-04-10T01:50:57.720Z,0.00
2023-04-10T01:51:57.741Z,0.00
2023-04-10T01:52:57.738Z,0.00
2023-04-10T01:53:57.750Z,0.00
2023-04-10T01:54:57.742Z,0.00
2023-04-10T01:55:57.737Z,0.00
2023-04-10T01:56:57.735Z,0.00
2023-04-10T01:57:57.703Z,0.00
2023-04-10T01:58:57.677Z,0.00
2023-04-10T01:59:57.687Z,0.00
2023-04-10T02:00:57.681Z,0.00
2023-04-10T02:01:57.764Z,0.00
2023-04-10T02:02:57.798Z,0.00
2023-04-10T02:03:58.129Z,0.00
2023-04-10T02:04:57.659Z,0.00
2023-04-10T02:05:57.665Z,0.00
2023-04-10T02:06:57.638Z,0.00
2023-04-10T02:07:57.668Z,0.00
2023-04-10T02:08:57.608Z,0.00
2023-04-10T02:09:57.624Z,0.00
2023-04-10T02:10:57.629Z,0.00
2023-04-10T02:11:57.648Z,0.00
2023-04-10T02:12:57.597Z,0.00
2023-04-10T02:13:57.638Z,0.00
2023-04-10T02:14:57.639Z,0.00
2023-04-10T02:15:57.702Z,0.00
2023-04-10T02:16:57.579Z,0.00
2023-04-10T02:17:57.633Z,0.00
2023-04-10T02:18:57.587Z,0.00
2023-04-10T02:19:57.581Z,0.00
2023-04-10T02:20:57.606Z,0.00
2023-04-10T02:21:57.608Z,0.00
2023-04-10T02:22:57.606Z,0.00
2023-04-10T02:23:57.584Z,0.00
2023-04-10T02:24:57.503Z,0.00
2023-04-10T02:25:57.592Z,0.00
2023-04-10T02:26:57.509Z,0.00
2023-04-10T02:27:57.539Z,0.00
2023-04-10T02:28:57.480Z,0.00
2023-04-10T02:29:57.512Z,0.00
2023-04-10T02:30:57.496Z,0.00
2023-04-10T02:31:57.520Z,0.00
2023-04-10T02:32:57.492Z,0.00
2023-04-10T02:33:57.472Z,0.00
2023-04-10T02:34:57.440Z,0.00
2023-04-10T02:35:57.472Z,0.00
2023-04-10T02:36:57.419Z,0.00
2023-04-10T02:37:57.445Z,0.00
2023-04-10T02:38:57.430Z,0.00
2023-04-10T02:39:57.416Z,0.00
2023-04-10T02:40:57.425Z,0.00
2023-04-10T02:41:57.397Z,0.00
2023-04-10T02:42:57.385Z,0.00
2023-04-10T02:43:57.405Z,0.00
2023-04-10T02:44:57.371Z,0.00
2023-04-10T02:45:57.405Z,0.00
2023-04-10T02:46:57.387Z,0.00
2023-04-10T02:47:57.414Z,0.00
2023-04-10T02:48:57.346Z,0.00
2023-04-10T02:49:57.353Z,0.00
2023-04-10T02:50:57.348Z,0.00
2023-04-10T02:51:57.329Z,0.00
2023-04-10T02:52:57.333Z,0.00
2023-04-10T02:53:57.353Z,0.00
2023-04-10T02:54:57.323Z,0.00
2023-04-10T02:55:57.345Z,0.00
2023-04-10T02:56:57.302Z,0.00
2023-04-10T02:57:57.302Z,0.00
2023-04-10T02:58:57.276Z,0.00
2023-04-10T02:59:57.277Z,0.00
2023-04-10T03:00:57.257Z,0.00
2023-04-10T03:01:57.387Z,0.00
2023-04-10T03:02:57.326Z,0.00
2023-04-10T03:03:57.722Z,0.00
2023-04-10T03:04:57.311Z,0.00
2023-04-10T03:05:57.251Z,0.00
2023-04-10T03:06:57.269Z,0.00
2023-04-10T03:07:57.255Z,0.00
2023-04-10T03:08:57.207Z,0.00
2023-04-10T03:09:57.234Z,0.00
2023-04-10T03:10:57.204Z,0.00
2023-04-10T03:11:57.228Z,0.00
2023-04-10T03:12:57.216Z,0.00
2023-04-10T03:13:57.205Z,0.00
2023-04-10T03:14:57.176Z,0.00
2023-04-10T03:15:57.254Z,0.00
2023-04-10T03:16:57.164Z,0.00
2023-04-10T03:17:57.226Z,0.00
2023-04-10T03:18:57.177Z,0.00
2023-04-10T03:19:57.156Z,0.00
2023-04-10T03:20:57.153Z,0.00
2023-04-10T03:21:57.162Z,0.00
2023-04-10T03:22:57.117Z,0.00
2023-04-10T03:23:57.149Z,0.00
2023-04-10T03:24:57.122Z,0.00
2023-04-10T03:25:57.135Z,0.00
2023-04-10T03:26:57.096Z,0.00
2023-04-10T03:27:57.119Z,0.00
2023-04-10T03:28:57.088Z,0.00
2023-04-10T03:29:57.093Z,0.00
2023-04-10T03:30:57.081Z,0.00
2023-04-10T03:31:57.190Z,0.00
2023-04-10T03:32:57.057Z,0.00
2023-04-10T03:33:57.287Z,0.00
2023-04-10T03:34:57.042Z,0.00
2023-04-10T03:35:57.109Z,0.00
2023-04-10T03:36:57.043Z,0.00
2023-04-10T03:37:57.036Z,0.00
2023-04-10T03:38:57.017Z,0.00
2023-04-10T03:39:57.017Z,0.00
2023-04-10T03:40:57.021Z,0.00
2023-04-10T03:41:57.028Z,0.00
2023-04-10T03:42:56.983Z,0.00
2023-04-10T03:43:57.135Z,0.00
2023-04-10T03:44:56.969Z,0.00
2023-04-10T03:45:56.976Z,0.00
2023-04-10T03:46:57.008Z,0.00
2023-04-10T03:47:57.048Z,0.00
2023-04-10T03:48:56.961Z,0.00
2023-04-10T03:49:56.947Z,0.00
2023-04-10T03:50:56.936Z,0.00
2023-04-10T03:51:56.935Z,1.00
2023-04-10T03:52:56.919Z,1.00
2023-04-10T03:53:57.073Z,1.00
2023-04-10T03:54:56.913Z,1.00
2023-04-10T03:55:56.917Z,1.00
2023-04-10T03:56:56.888Z,0.00
2023-04-10T03:57:56.902Z,0.00
2023-04-10T03:58:56.887Z,1.00
2023-04-10T03:59:56.877Z,1.00
2023-04-10T04:00:56.863Z,1.00
2023-04-10T04:01:56.939Z,1.00
2023-04-10T04:02:56.942Z,1.00
2023-04-10T04:03:57.083Z,1.00
2023-04-10T04:04:56.902Z,2.00
2023-04-10T04:05:56.850Z,2.00
2023-04-10T04:06:56.834Z,2.00
2023-04-10T04:07:56.831Z,3.00
2023-04-10T04:08:56.823Z,5.00
2023-04-10T04:09:56.819Z,4.00
2023-04-10T04:10:56.831Z,4.00
2023-04-10T04:11:56.830Z,7.00
2023-04-10T04:12:56.783Z,8.00
2023-04-10T04:13:56.820Z,9.00
2023-04-10T04:14:56.777Z,9.00
2023-04-10T04:15:56.772Z,12.00
2023-04-10T04:16:56.869Z,17.00
2023-04-10T04:17:56.818Z,17.00
2023-04-10T04:18:56.800Z,22.00
2023-04-10T04:19:56.761Z,27.00
2023-04-10T04:20:56.746Z,30.00
2023-04-10T04:21:56.746Z,38.00
2023-04-10T04:22:56.720Z,43.00
2023-04-10T04:23:56.737Z,50.00
2023-04-10T04:24:56.719Z,56.00
2023-04-10T04:25:56.717Z,63.00
2023-04-10T04:26:56.747Z,71.00
2023-04-10T04:27:56.697Z,82.00
2023-04-10T04:28:56.677Z,95.00
2023-04-10T04:29:56.681Z,107.00
2023-04-10T04:30:56.662Z,120.00
2023-04-10T04:31:56.711Z,133.00
2023-04-10T04:32:56.751Z,148.00
2023-04-10T04:33:56.696Z,165.00
2023-04-10T04:34:56.649Z,184.00
2023-04-10T04:35:56.671Z,202.00
2023-04-10T04:36:56.625Z,222.00
2023-04-10T04:37:56.652Z,246.00
2023-04-10T04:38:56.628Z,272.00
2023-04-10T04:39:56.631Z,298.00
2023-04-10T04:40:56.648Z,326.00
2023-04-10T04:41:56.597Z,349.00
2023-04-10T04:42:56.590Z,380.00
2023-04-10T04:43:56.670Z,414.00
2023-04-10T04:44:56.567Z,457.00
2023-04-10T04:45:56.620Z,497.00
2023-04-10T04:46:56.578Z,557.00
2023-04-10T04:47:56.588Z,627.00
2023-04-10T04:48:56.573Z,718.00
2023-04-10T04:49:56.569Z,776.00
2023-04-10T04:50:56.536Z,819.00
2023-04-10T04:51:56.560Z,969.00
2023-04-10T04:52:56.536Z,1091.00
2023-04-10T04:53:56.688Z,1165.00
2023-04-10T04:54:56.526Z,1324.00
2023-04-10T04:55:56.538Z,1617.00
2023-04-10T04:56:56.512Z,1846.00
2023-04-10T04:57:56.489Z,1914.00
2023-04-10T04:58:56.571Z,2124.00
2023-04-10T04:59:56.524Z,2381.00
2023-04-10T05:00:56.506Z,2578.00
2023-04-10T05:01:56.663Z,2625.00
2023-04-10T05:02:56.524Z,2269.00
2023-04-10T05:03:56.517Z,2425.00
2023-04-10T05:04:56.445Z,2490.00
2023-04-10T05:05:56.509Z,2280.00
2023-04-10T05:06:56.428Z,2080.00
2023-04-10T05:07:56.450Z,2191.00
2023-04-10T05:08:56.593Z,2482.00
2023-04-10T05:09:56.414Z,2482.00
2023-04-10T05:10:56.401Z,2519.00
2023-04-10T05:11:56.431Z,2652.00
2023-04-10T05:12:56.416Z,2414.00
2023-04-10T05:13:56.399Z,2431.00
2023-04-10T05:14:56.392Z,2632.00
2023-04-10T05:15:56.397Z,3301.00
2023-04-10T05:16:56.379Z,3281.00
2023-04-10T05:17:56.518Z,2958.00
2023-04-10T05:18:56.679Z,3037.00
2023-04-10T05:19:56.383Z,3313.00
2023-04-10T05:20:56.346Z,3492.00
2023-04-10T05:21:56.374Z,3624.00
2023-04-10T05:22:56.340Z,3141.00
2023-04-10T05:23:56.384Z,2779.00
2023-04-10T05:24:56.309Z,2860.00
2023-04-10T05:25:56.339Z,3385.00
2023-04-10T05:26:56.314Z,3710.00
2023-04-10T05:27:56.308Z,3607.00
2023-04-10T05:28:56.532Z,3576.00
2023-04-10T05:29:56.293Z,3869.00
2023-04-10T05:30:56.353Z,4213.00
2023-04-10T05:31:56.290Z,4485.00
2023-04-10T05:32:56.326Z,4724.00
2023-04-10T05:33:56.276Z,4864.00
2023-04-10T05:34:56.259Z,4915.00
2023-04-10T05:35:56.293Z,4486.00
2023-04-10T05:36:58.772Z,5320.00
2023-04-10T05:37:56.247Z,6486.00
2023-04-10T05:38:56.536Z,9778.00
2023-04-10T05:39:56.230Z,8736.00
2023-04-10T05:40:56.239Z,8190.00
2023-04-10T05:41:56.226Z,8105.00
2023-04-10T05:42:56.220Z,6936.00
2023-04-10T05:43:56.219Z,6891.00
2023-04-10T05:44:56.202Z,7901.00
2023-04-10T05:45:56.246Z,8460.00
2023-04-10T05:46:56.196Z,8351.00
2023-04-10T05:47:56.226Z,8013.00
2023-04-10T05:48:56.486Z,9067.00
2023-04-10T05:49:56.173Z,8766.00
2023-04-10T05:50:56.158Z,9529.00
2023-04-10T05:51:56.174Z,10155.00
2023-04-10T05:52:56.151Z,10240.00
2023-04-10T05:53:56.161Z,10357.00
2023-04-10T05:54:56.126Z,10833.00
2023-04-10T05:55:56.138Z,9137.00
2023-04-10T05:56:56.115Z,13134.00
2023-04-10T05:57:56.134Z,14163.00
2023-04-10T05:58:56.213Z,12722.00
2023-04-10T05:59:56.160Z,11699.00
2023-04-10T06:00:56.117Z,15353.00
2023-04-10T06:01:56.155Z,16699.00
2023-04-10T06:02:56.145Z,17546.00
2023-04-10T06:03:56.240Z,16230.00
2023-04-10T06:04:56.159Z,14838.00
2023-04-10T06:05:56.086Z,17084.00
2023-04-10T06:06:56.061Z,18631.00
2023-04-10T06:07:58.192Z,17353.00
2023-04-10T06:08:56.180Z,16145.00
2023-04-10T06:09:56.080Z,16834.00
2023-04-10T06:10:56.054Z,17994.00
2023-04-10T06:11:56.060Z,17529.00
2023-04-10T06:12:56.043Z,17261.00
2023-04-10T06:13:56.039Z,16622.00
2023-04-10T06:14:56.035Z,17382.00
2023-04-10T06:15:56.071Z,17058.00
2023-04-10T06:16:56.004Z,17501.00
2023-04-10T06:17:56.025Z,15969.00
2023-04-10T06:18:56.289Z,15949.00
2023-04-10T06:19:55.997Z,15380.00
2023-04-10T06:21:03.009Z,15437.00
2023-04-10T06:21:56.011Z,15875.00
2023-04-10T06:22:55.963Z,17350.00
2023-04-10T06:23:56.332Z,19392.00
2023-04-10T06:24:55.960Z,19586.00
2023-04-10T06:25:55.985Z,18273.00
2023-04-10T06:26:55.962Z,19459.00
2023-04-10T06:27:55.963Z,22542.00
2023-04-10T06:28:56.150Z,22713.00
2023-04-10T06:29:55.961Z,21708.00
2023-04-10T06:30:55.997Z,19188.00
2023-04-10T06:31:55.997Z,14618.00
2023-04-10T06:32:55.991Z,17949.00
2023-04-10T06:33:55.930Z,17405.00
2023-04-10T06:34:55.896Z,16162.00
2023-04-10T06:35:55.951Z,14597.00
2023-04-10T06:36:56.040Z,18036.00
2023-04-10T06:37:55.874Z,23020.00
2023-04-10T06:38:56.127Z,23018.00
2023-04-10T06:39:55.887Z,21673.00
2023-04-10T06:40:55.841Z,19701.00
2023-04-10T06:41:55.891Z,21082.00
2023-04-10T06:42:55.854Z,25010.00
2023-04-10T06:43:55.844Z,25708.00
2023-04-10T06:44:55.844Z,23334.00
2023-04-10T06:45:55.834Z,21993.00
2023-04-10T06:46:55.858Z,21136.00
2023-04-10T06:47:55.865Z,20307.00
2023-04-10T06:48:55.963Z,21105.00
2023-04-10T06:49:55.827Z,18860.00
2023-04-10T06:50:55.765Z,15341.00
2023-04-10T06:51:55.798Z,12302.00
2023-04-10T06:52:55.810Z,11772.00
2023-04-10T06:53:55.776Z,12406.00
2023-04-10T06:54:55.759Z,16457.00
2023-04-10T06:55:55.771Z,22301.00
2023-04-10T06:56:55.754Z,22412.00
2023-04-10T06:57:55.758Z,22775.00
2023-04-10T06:58:55.953Z,24092.00
2023-04-10T06:59:55.753Z,24822.00
2023-04-10T07:00:55.752Z,22447.00
2023-04-10T07:01:55.756Z,21943.00
2023-04-10T07:02:55.720Z,23062.00
2023-04-10T07:03:55.708Z,23829.00
2023-04-10T07:04:55.686Z,24210.00
2023-04-10T07:05:55.667Z,23295.00
2023-04-10T07:06:55.661Z,22809.00
2023-04-10T07:07:55.678Z,22756.00
2023-04-10T07:08:55.902Z,20658.00
2023-04-10T07:09:55.661Z,20543.00
2023-04-10T07:10:58.312Z,19059.00
2023-04-10T07:11:55.662Z,19309.00
2023-04-10T07:12:55.628Z,18708.00
2023-04-10T07:13:55.622Z,20186.00
2023-04-10T07:14:55.606Z,23761.00
2023-04-10T07:15:55.665Z,22907.00
2023-04-10T07:16:55.571Z,23422.00
2023-04-10T07:17:55.622Z,24430.00
2023-04-10T07:18:55.830Z,25848.00
2023-04-10T07:19:55.586Z,26153.00
2023-04-10T07:20:55.525Z,25473.00
2023-04-10T07:21:55.563Z,24084.00
2023-04-10T07:22:55.520Z,25045.00
2023-04-10T07:23:55.537Z,25356.00
2023-04-10T07:24:55.502Z,25680.00
2023-04-10T07:25:55.529Z,24888.00
2023-04-10T07:26:55.516Z,24284.00
2023-04-10T07:27:55.495Z,23179.00
2023-04-10T07:28:55.701Z,23269.00
2023-04-10T07:29:55.480Z,24561.00
2023-04-10T07:30:55.475Z,24471.00
2023-04-10T07:31:55.585Z,22582.00
2023-04-10T07:32:55.549Z,22050.00
2023-04-10T07:33:55.457Z,22678.00
2023-04-10T07:34:55.444Z,22750.00
2023-04-10T07:35:55.509Z,22826.00
2023-04-10T07:36:55.418Z,22286.00
2023-04-10T07:37:55.440Z,22350.00
2023-04-10T07:38:55.600Z,24803.00
2023-04-10T07:39:55.427Z,24003.00
2023-04-10T07:40:55.387Z,22527.00
2023-04-10T07:41:55.386Z,22208.00
2023-04-10T07:42:55.410Z,21670.00
2023-04-10T07:43:55.408Z,22285.00
2023-04-10T07:44:55.348Z,19938.00
2023-04-10T07:45:55.362Z,19954.00
2023-04-10T07:46:55.331Z,22092.00
2023-04-10T07:47:55.358Z,20344.00
2023-04-10T07:48:55.840Z,21204.00
2023-04-10T07:49:55.312Z,21619.00
2023-04-10T07:50:55.302Z,26020.00
2023-04-10T07:51:55.326Z,28684.00
2023-04-10T07:52:55.300Z,62311.00
2023-04-10T07:53:55.288Z,29432.00
2023-04-10T07:54:55.276Z,27791.00
2023-04-10T07:55:55.299Z,27965.00
2023-04-10T07:56:55.249Z,27223.00
2023-04-10T07:57:55.273Z,27972.00
2023-04-10T07:58:55.484Z,28811.00
2023-04-10T07:59:55.249Z,62031.00
2023-04-10T08:00:55.256Z,62096.00
2023-04-10T08:01:55.274Z,62207.00
2023-04-10T08:02:55.384Z,29703.00
2023-04-10T08:03:55.317Z,24003.00
2023-04-10T08:04:55.553Z,21895.00
2023-04-10T08:05:55.234Z,21736.00
2023-04-10T08:06:55.199Z,22234.00
2023-04-10T08:07:55.187Z,25684.00
2023-04-10T08:08:55.346Z,24034.00
2023-04-10T08:09:55.171Z,26120.00
2023-04-10T08:10:55.164Z,27278.00
2023-04-10T08:11:55.175Z,28963.00
2023-04-10T08:12:55.133Z,62460.00
2023-04-10T08:13:55.246Z,62432.00
2023-04-10T08:14:55.123Z,25913.00
2023-04-10T08:15:55.162Z,25226.00
2023-04-10T08:16:55.146Z,23572.00
2023-04-10T08:17:55.197Z,23902.00
2023-04-10T08:18:55.250Z,23973.00
2023-04-10T08:19:55.110Z,21568.00
2023-04-10T08:20:55.120Z,23733.00
2023-04-10T08:21:55.077Z,23794.00
2023-04-10T08:22:56.254Z,27814.00
2023-04-10T08:23:55.082Z,25851.00
2023-04-10T08:24:55.061Z,25086.00
2023-04-10T08:25:55.074Z,24560.00
2023-04-10T08:26:55.087Z,23584.00
2023-04-10T08:27:55.051Z,23644.00
2023-04-10T08:28:55.151Z,26245.00
2023-04-10T08:29:55.018Z,29260.00
2023-04-10T08:30:55.103Z,62565.00
2023-04-10T08:31:55.025Z,26428.00
2023-04-10T08:32:55.006Z,26054.00
2023-04-10T08:33:55.355Z,26438.00
2023-04-10T08:34:54.990Z,26299.00
2023-04-10T08:35:55.009Z,27666.00
2023-04-10T08:36:55.019Z,27039.00
2023-04-10T08:38:11.678Z,25263.00
2023-04-10T08:38:55.976Z,25793.00
2023-04-10T08:39:54.966Z,25587.00
2023-04-10T08:40:54.926Z,25409.00
2023-04-10T08:41:54.949Z,25637.00
2023-04-10T08:42:54.915Z,27675.00
2023-04-10T08:43:55.227Z,62273.00
2023-04-10T08:44:54.910Z,25704.00
2023-04-10T08:45:54.962Z,24691.00
2023-04-10T08:46:54.897Z,27048.00
2023-04-10T08:47:54.915Z,62076.00
2023-04-10T08:48:54.853Z,62080.00
2023-04-10T08:49:54.874Z,61712.00
2023-04-10T08:50:54.850Z,61525.00
2023-04-10T08:51:54.898Z,61475.00
2023-04-10T08:52:54.841Z,61465.00
2023-04-10T08:53:55.000Z,61386.00
2023-04-10T08:54:54.824Z,61172.00
2023-04-10T08:55:54.833Z,61019.00
2023-04-10T08:56:54.826Z,61118.00
2023-04-10T08:58:01.075Z,61510.00
2023-04-10T08:58:55.796Z,26285.00
2023-04-10T08:59:54.815Z,26267.00
2023-04-10T09:00:54.819Z,23893.00
2023-04-10T09:01:54.892Z,20756.00
2023-04-10T09:02:54.947Z,21590.00
2023-04-10T09:03:55.127Z,21030.00
2023-04-10T09:04:54.978Z,20196.00
2023-04-10T09:05:54.765Z,19265.00
2023-04-10T09:06:54.753Z,18468.00
2023-04-10T09:07:54.805Z,17708.00
2023-04-10T09:08:54.757Z,17202.00
2023-04-10T09:09:54.763Z,16329.00
2023-04-10T09:10:56.328Z,17219.00
2023-04-10T09:11:54.729Z,19182.00
2023-04-10T09:12:54.749Z,19796.00
2023-04-10T09:13:54.890Z,20180.00
2023-04-10T09:14:54.703Z,18151.00
2023-04-10T09:15:54.812Z,16541.00
2023-04-10T09:16:54.685Z,17053.00
2023-04-10T09:17:54.724Z,17738.00
2023-04-10T09:18:54.666Z,19159.00
2023-04-10T09:19:54.702Z,19588.00
2023-04-10T09:20:54.635Z,19292.00
2023-04-10T09:21:54.690Z,18877.00
2023-04-10T09:22:54.641Z,18626.00
2023-04-10T09:23:54.942Z,17995.00
2023-04-10T09:24:54.648Z,18545.00
2023-04-10T09:25:54.621Z,19355.00
2023-04-10T09:26:54.584Z,20601.00
2023-04-10T09:27:54.603Z,20174.00
2023-04-10T09:28:54.571Z,17830.00
2023-04-10T09:29:54.584Z,16210.00
2023-04-10T09:30:54.619Z,16823.00
2023-04-10T09:31:54.602Z,17500.00
2023-04-10T09:32:54.621Z,18242.00
2023-04-10T09:33:54.695Z,18073.00
2023-04-10T09:34:54.543Z,18241.00
2023-04-10T09:35:54.536Z,17131.00
2023-04-10T09:36:54.516Z,18470.00
2023-04-10T09:37:54.577Z,17719.00
2023-04-10T09:38:54.506Z,16157.00
2023-04-10T09:39:54.529Z,17175.00
2023-04-10T09:40:54.938Z,18458.00
2023-04-10T09:41:54.510Z,18133.00
2023-04-10T09:42:54.471Z,17141.00
2023-04-10T09:43:54.768Z,16125.00
2023-04-10T09:44:54.466Z,16906.00
2023-04-10T09:45:54.500Z,17523.00
2023-04-10T09:46:54.722Z,17168.00
2023-04-10T09:47:54.530Z,15945.00
2023-04-10T09:48:54.433Z,14811.00
2023-04-10T09:49:54.465Z,18380.00
2023-04-10T09:50:54.417Z,19811.00
2023-04-10T09:51:54.492Z,18260.00
2023-04-10T09:52:54.437Z,17248.00
2023-04-10T09:53:54.531Z,17116.00
2023-04-10T09:54:54.441Z,17736.00
2023-04-10T09:55:54.400Z,17545.00
2023-04-10T09:56:54.379Z,17039.00
2023-04-10T09:57:54.401Z,16261.00
2023-04-10T09:58:54.564Z,15843.00
2023-04-10T09:59:54.425Z,16945.00
2023-04-10T10:00:54.359Z,18956.00
2023-04-10T10:01:54.425Z,18769.00
2023-04-10T10:02:54.510Z,19301.00
2023-04-10T10:03:54.434Z,18457.00
2023-04-10T10:04:54.370Z,19550.00
2023-04-10T10:05:54.337Z,22283.00
2023-04-10T10:06:54.322Z,22611.00
2023-04-10T10:07:54.305Z,21029.00
2023-04-10T10:08:54.568Z,19364.00
2023-04-10T10:09:54.339Z,20872.00
2023-04-10T10:10:54.310Z,24502.00
2023-04-10T10:11:54.295Z,26310.00
2023-04-10T10:12:54.295Z,22689.00
2023-04-10T10:13:54.320Z,14672.00
2023-04-10T10:14:54.255Z,9497.00
2023-04-10T10:15:54.289Z,8943.00
2023-04-10T10:16:54.267Z,8645.00
2023-04-10T10:17:54.279Z,8409.00
2023-04-10T10:18:54.483Z,8438.00
2023-04-10T10:19:54.217Z,8478.00
2023-04-10T10:20:54.211Z,7629.00
2023-04-10T10:21:54.231Z,8269.00
2023-04-10T10:22:54.198Z,7898.00
2023-04-10T10:23:54.250Z,7701.00
2023-04-10T10:24:54.172Z,8403.00
2023-04-10T10:25:54.178Z,7941.00
2023-04-10T10:26:54.155Z,7978.00
2023-04-10T10:27:54.186Z,7458.00
2023-04-10T10:28:54.490Z,7483.00
2023-04-10T10:29:54.145Z,8302.00
2023-04-10T10:30:54.134Z,8344.00
2023-04-10T10:31:54.284Z,8560.00
2023-04-10T10:32:54.164Z,8323.00
2023-04-10T10:33:54.143Z,8226.00
2023-04-10T10:34:54.101Z,7359.00
2023-04-10T10:35:54.105Z,8404.00
2023-04-10T10:36:54.120Z,8521.00
2023-04-10T10:37:54.109Z,8602.00
2023-04-10T10:38:54.278Z,8242.00
2023-04-10T10:39:54.087Z,8324.00
2023-04-10T10:40:54.057Z,8141.00
2023-04-10T10:41:54.069Z,8092.00
2023-04-10T10:42:54.036Z,7902.00
2023-04-10T10:43:54.063Z,8047.00
2023-04-10T10:44:54.053Z,7664.00
2023-04-10T10:45:54.063Z,7891.00
2023-04-10T10:46:54.021Z,8565.00
2023-04-10T10:47:54.036Z,8817.00
2023-04-10T10:48:54.188Z,8807.00
2023-04-10T10:49:54.054Z,8511.00
2023-04-10T10:50:54.047Z,8505.00
2023-04-10T10:51:53.994Z,8768.00
2023-04-10T10:52:53.980Z,9087.00
2023-04-10T10:53:53.979Z,9104.00
2023-04-10T10:54:59.425Z,9022.00
2023-04-10T10:55:54.989Z,9064.00
2023-04-10T10:56:53.928Z,9119.00
2023-04-10T10:57:53.959Z,9226.00
2023-04-10T10:58:54.261Z,9079.00
2023-04-10T10:59:53.922Z,9183.00
2023-04-10T11:00:53.913Z,9084.00
2023-04-10T11:01:54.103Z,9029.00
2023-04-10T11:02:54.014Z,9131.00
2023-04-10T11:03:54.083Z,9076.00
2023-04-10T11:04:53.892Z,8875.00
2023-04-10T11:05:53.903Z,8700.00
2023-04-10T11:06:53.896Z,9075.00
2023-04-10T11:07:53.895Z,8995.00
2023-04-10T11:08:54.076Z,8970.00
2023-04-10T11:09:53.887Z,8728.00
2023-04-10T11:10:53.835Z,8799.00
2023-04-10T11:11:53.848Z,8739.00
2023-04-10T11:12:53.844Z,8447.00
2023-04-10T11:13:53.862Z,8632.00
2023-04-10T11:14:53.798Z,8362.00
2023-04-10T11:15:53.826Z,8064.00
2023-04-10T11:16:53.848Z,8216.00
2023-04-10T11:17:53.835Z,8317.00
2023-04-10T11:19:06.261Z,8296.00
2023-04-10T11:19:53.786Z,8105.00
2023-04-10T11:20:53.769Z,7935.00
2023-04-10T11:21:53.788Z,7817.00
2023-04-10T11:22:53.741Z,7422.00
2023-04-10T11:23:53.779Z,7224.00
2023-04-10T11:24:53.736Z,7088.00
2023-04-10T11:25:53.799Z,7234.00
2023-04-10T11:26:53.716Z,7188.00
2023-04-10T11:27:53.730Z,7566.00
2023-04-10T11:28:53.899Z,7296.00
2023-04-10T11:29:53.702Z,7208.00
2023-04-10T11:30:53.719Z,7210.00
2023-04-10T11:31:53.746Z,7633.00
2023-04-10T11:32:53.712Z,7809.00
2023-04-10T11:33:53.686Z,7928.00
2023-04-10T11:34:53.649Z,7829.00
2023-04-10T11:35:53.765Z,7466.00
2023-04-10T11:36:53.658Z,7770.00
2023-04-10T11:37:53.683Z,7744.00
2023-04-10T11:38:53.946Z,7672.00
2023-04-10T11:39:53.658Z,7377.00
2023-04-10T11:40:53.610Z,7772.00
2023-04-10T11:41:53.759Z,7857.00
2023-04-10T11:42:53.601Z,7872.00
2023-04-10T11:43:53.612Z,8054.00
2023-04-10T11:44:53.620Z,8125.00
2023-04-10T11:45:53.626Z,8024.00
2023-04-10T11:46:53.576Z,8059.00
2023-04-10T11:47:53.606Z,7965.00
2023-04-10T11:48:53.673Z,7855.00
2023-04-10T11:49:53.570Z,7875.00
2023-04-10T11:50:53.550Z,7143.00
2023-04-10T11:51:53.556Z,6413.00
2023-04-10T11:52:55.267Z,7385.00
2023-04-10T11:53:53.560Z,7537.00
2023-04-10T11:54:53.543Z,7429.00
2023-04-10T11:55:53.529Z,7315.00
2023-04-10T11:56:53.496Z,7427.00
2023-04-10T11:57:53.501Z,7375.00
2023-04-10T11:58:53.777Z,7329.00
2023-04-10T11:59:53.509Z,7358.00
2023-04-10T12:00:53.487Z,7173.00
2023-04-10T12:01:53.523Z,7281.00
2023-04-10T12:02:53.813Z,7520.00
2023-04-10T12:03:53.590Z,7305.00
2023-04-10T12:04:53.491Z,7274.00
2023-04-10T12:05:53.463Z,7317.00
2023-04-10T12:06:53.454Z,7865.00
2023-04-10T12:07:53.439Z,7903.00
2023-04-10T12:08:53.929Z,7976.00
2023-04-10T12:09:53.448Z,7915.00
2023-04-10T12:10:53.431Z,7878.00
2023-04-10T12:11:53.462Z,7650.00
2023-04-10T12:12:53.390Z,7581.00
2023-04-10T12:13:53.383Z,7641.00
2023-04-10T12:14:53.369Z,7436.00
2023-04-10T12:15:53.556Z,7433.00
2023-04-10T12:16:53.352Z,7204.00
2023-04-10T12:17:53.416Z,6941.00
2023-04-10T12:18:53.584Z,7093.00
2023-04-10T12:19:53.368Z,7264.00
2023-04-10T12:22:00.182Z,6524.00
2023-04-10T12:23:00.198Z,6568.00
2023-04-10T12:24:00.163Z,6574.00